Time;durP1;ratioP1;P1;durP2;ratioP2;P2;SDS_P1;SDS_P2;PMS_P1;PMS_P2;Temp;Humidity;BMP_temperature;BMP_pressure;BME280_temperature;BME280_humidity;BME280_pressure;Samples;Min_cycle;Max_cycle;Signal;HPM_P1;HPM_P2
2023/07/20 00:00:58;;;;;;;5.05;2.85;;;;;;;-145.41;100.00;58600.66;5004353;28;20502;-79
2023/07/20 00:03:24;;;;;;;8.10;3.45;;;;;;;-145.41;100.00;58600.66;5003491;28;20038;-79
2023/07/20 00:05:51;;;;;;;5.07;1.58;;;;;;;-145.41;100.00;58600.66;5005281;28;20097;-79
2023/07/20 00:08:17;;;;;;;3.70;2.25;;;;;;;-145.41;100.00;58600.66;5008579;28;20049;-79
2023/07/20 00:10:43;;;;;;;3.38;2.13;;;;;;;-145.41;100.00;58600.66;5004621;28;20038;-79
2023/07/20 00:13:09;;;;;;;6.07;2.42;;;;;;;-145.41;100.00;58600.66;5003592;28;20098;-79
2023/07/20 00:15:35;;;;;;;5.65;2.30;;;;;;;-145.41;100.00;58600.66;5002519;28;20038;-79
2023/07/20 00:18:00;;;;;;;7.30;2.00;;;;;;;-145.41;100.00;58600.66;5003677;28;20045;-79
2023/07/20 00:20:25;;;;;;;4.68;2.28;;;;;;;-145.41;100.00;58600.66;5010271;28;20031;-79
2023/07/20 00:22:51;;;;;;;3.53;1.67;;;;;;;-145.41;100.00;58600.66;5003121;28;20592;-79
2023/07/20 00:25:16;;;;;;;2.60;1.40;;;;;;;-145.41;100.00;58600.66;5004064;28;20034;-79
2023/07/20 00:27:42;;;;;;;5.03;1.80;;;;;;;-145.41;100.00;58600.66;5000247;28;20034;-79
2023/07/20 00:30:08;;;;;;;5.32;1.77;;;;;;;-145.41;100.00;58600.66;5006001;28;20493;-79
2023/07/20 00:32:33;;;;;;;3.47;1.73;;;;;;;-145.41;100.00;58600.66;5004661;28;20045;-79
2023/07/20 00:34:58;;;;;;;4.30;1.80;;;;;;;-145.41;100.00;58600.66;5004160;28;20038;-79
2023/07/20 00:37:24;;;;;;;7.30;3.25;;;;;;;-145.41;100.00;58600.66;5002850;28;20143;-78
2023/07/20 00:39:49;;;;;;;4.55;3.35;;;;;;;-145.41;100.00;58600.66;5011997;28;20030;-79
2023/07/20 00:42:14;;;;;;;4.53;2.58;;;;;;;-145.41;100.00;58600.66;5009714;28;20038;-79
2023/07/20 00:44:40;;;;;;;5.05;2.75;;;;;;;-145.41;100.00;58600.66;5001687;28;20122;-78
2023/07/20 00:47:06;;;;;;;6.63;3.70;;;;;;;-145.41;100.00;58600.66;5005870;28;20053;-78
2023/07/20 00:49:32;;;;;;;6.45;3.50;;;;;;;-145.41;100.00;58600.66;5000442;28;20122;-78
2023/07/20 00:51:59;;;;;;;8.45;3.67;;;;;;;-145.41;100.00;58600.66;5004379;28;20098;-78
2023/07/20 00:54:25;;;;;;;5.35;2.72;;;;;;;-145.41;100.00;58600.66;4982878;28;20743;-78
2023/07/20 00:56:53;;;;;;;9.45;4.05;;;;;;;-145.41;100.00;58600.66;5006539;28;20073;-78
2023/07/20 00:59:18;;;;;;;5.70;3.33;;;;;;;-145.41;100.00;58600.66;5001231;28;20030;-78
2023/07/20 01:01:43;;;;;;;5.78;2.97;;;;;;;-145.41;100.00;58600.66;5017398;28;20049;-78
2023/07/20 01:04:09;;;;;;;5.80;3.17;;;;;;;-145.41;100.00;58600.66;5015485;28;20030;-79
2023/07/20 01:06:45;;;;;;;5.90;3.53;;;;;;;-145.41;100.00;58600.66;5002575;28;20049;-79
2023/07/20 01:09:19;;;;;;;4.72;2.72;;;;;;;-145.41;100.00;58600.66;4997416;28;20477;-78
2023/07/20 01:12:05;;;;;;;5.18;2.30;;;;;;;-145.41;100.00;58600.66;5018581;28;20038;-79
2023/07/20 01:14:32;;;;;;;6.75;3.92;;;;;;;-145.41;100.00;58600.66;4992007;28;20026;-79
2023/07/20 01:16:57;;;;;;;6.05;4.20;;;;;;;-145.41;100.00;58600.66;5019665;28;20420;-79
2023/07/20 01:19:23;;;;;;;5.57;3.10;;;;;;;-145.41;100.00;58600.66;5011069;28;20065;-79
2023/07/20 01:22:00;;;;;;;6.50;2.83;;;;;;;-145.41;100.00;58600.66;5013591;28;20034;-79
2023/07/20 01:24:50;;;;;;;4.22;3.10;;;;;;;-145.41;100.00;58600.66;5018131;28;20045;-79
2023/07/20 01:28:00;;;;;;;8.02;4.22;;;;;;;-145.41;100.00;58600.66;5013387;28;20074;-80
2023/07/20 01:30:48;;;;;;;6.78;4.95;;;;;;;-145.41;100.00;58600.66;4999613;28;20030;-80
2023/07/20 01:33:16;;;;;;;6.70;3.17;;;;;;;-145.41;100.00;58600.66;5002584;28;20037;-80
2023/07/20 01:35:43;;;;;;;9.00;5.93;;;;;;;-145.41;100.00;58600.66;5015092;28;20034;-80
2023/07/20 01:38:10;;;;;;;7.78;3.65;;;;;;;-145.41;100.00;58600.66;5004229;28;20405;-80
2023/07/20 01:40:35;;;;;;;7.25;3.70;;;;;;;-145.41;100.00;58600.66;5000040;28;20424;-80
2023/07/20 01:43:02;;;;;;;8.50;4.50;;;;;;;-145.41;100.00;58600.66;5003506;28;20037;-80
2023/07/20 01:45:28;;;;;;;5.78;4.05;;;;;;;-145.41;100.00;58600.66;5017391;28;20064;-80
2023/07/20 01:47:54;;;;;;;5.85;3.70;;;;;;;-145.41;100.00;58600.66;5018335;28;20054;-80
2023/07/20 01:50:19;;;;;;;5.38;3.35;;;;;;;-145.41;100.00;58600.66;5008607;28;20030;-80
2023/07/20 01:52:44;;;;;;;8.55;3.97;;;;;;;-145.41;100.00;58600.66;5019538;28;20030;-81
2023/07/20 01:55:10;;;;;;;9.13;4.25;;;;;;;-145.41;100.00;58600.66;5007047;28;20048;-81
2023/07/20 01:57:35;;;;;;;6.55;3.20;;;;;;;-145.41;100.00;58600.66;5005096;28;20050;-81
2023/07/20 02:00:01;;;;;;;7.50;4.32;;;;;;;-145.41;100.00;58600.66;5019449;28;20030;-81
2023/07/20 02:02:28;;;;;;;6.80;5.10;;;;;;;-145.41;100.00;58600.66;5019259;28;20038;-81
2023/07/20 02:04:53;;;;;;;5.28;3.00;;;;;;;-145.41;100.00;58600.66;5002464;28;20026;-81
2023/07/20 02:07:19;;;;;;;5.50;4.28;;;;;;;-145.41;100.00;58600.66;5020716;28;20041;-81
2023/07/20 02:09:45;;;;;;;5.35;2.85;;;;;;;-145.41;100.00;58600.66;5010723;28;20031;-81
2023/07/20 02:12:10;;;;;;;7.25;4.47;;;;;;;-145.41;100.00;58600.66;5012018;28;20030;-82
2023/07/20 02:14:35;;;;;;;6.40;4.07;;;;;;;-145.41;100.00;58600.66;5006332;28;20046;-82
2023/07/20 02:17:01;;;;;;;5.32;3.00;;;;;;;-145.41;100.00;58600.66;5020660;28;20034;-82
2023/07/20 02:19:29;;;;;;;6.90;5.47;;;;;;;-145.41;100.00;58600.66;5016716;28;20050;-82
2023/07/20 02:21:55;;;;;;;7.60;4.68;;;;;;;-145.41;100.00;58600.66;5006434;28;20038;-82
2023/07/20 02:24:20;;;;;;;5.68;4.07;;;;;;;-145.41;100.00;58600.66;5003365;28;20038;-82
2023/07/20 02:26:45;;;;;;;6.22;4.13;;;;;;;-145.41;100.00;58600.66;5005720;28;20046;-83
2023/07/20 02:29:14;;;;;;;5.38;3.60;;;;;;;-145.41;100.00;58600.66;5006296;28;20113;-84
2023/07/20 02:31:39;;;;;;;7.60;3.88;;;;;;;-145.41;100.00;58600.66;5003935;28;20030;-83
2023/07/20 02:34:08;;;;;;;5.10;3.05;;;;;;;-145.41;100.00;58600.66;5021348;28;20037;-83
2023/07/20 02:36:34;;;;;;;5.63;4.05;;;;;;;-145.41;100.00;58600.66;5014154;28;20038;-83
2023/07/20 02:39:00;;;;;;;4.68;2.70;;;;;;;-145.41;100.00;58600.66;5012284;28;20185;-83
2023/07/20 02:41:26;;;;;;;8.15;4.45;;;;;;;-145.41;100.00;58600.66;5004703;28;20038;-83
2023/07/20 02:43:51;;;;;;;5.30;3.88;;;;;;;-145.41;100.00;58600.66;5005903;28;20225;-83
2023/07/20 02:46:17;;;;;;;7.03;3.80;;;;;;;-145.41;100.00;58600.66;5007625;28;20102;-83
2023/07/20 02:48:42;;;;;;;7.35;5.32;;;;;;;-145.41;100.00;58600.66;5012860;28;20038;-83
2023/07/20 02:51:09;;;;;;;7.43;5.15;;;;;;;-145.41;100.00;58600.66;4998417;28;20034;-82
2023/07/20 02:53:34;;;;;;;7.40;4.43;;;;;;;-145.41;100.00;58600.66;5016575;28;20027;-83
2023/07/20 02:55:59;;;;;;;7.00;4.03;;;;;;;-145.41;100.00;58600.66;5007838;28;20062;-83
2023/07/20 02:58:25;;;;;;;8.75;5.63;;;;;;;-145.41;100.00;58600.66;4990146;28;20097;-83
2023/07/20 03:00:50;;;;;;;4.22;3.00;;;;;;;-145.41;100.00;58600.66;5023029;28;20022;-83
2023/07/20 03:03:15;;;;;;;5.10;2.95;;;;;;;-145.41;100.00;58600.66;5017474;28;20149;-84
2023/07/20 03:05:42;;;;;;;6.40;3.92;;;;;;;-145.41;100.00;58600.66;5016254;28;20030;-84
2023/07/20 03:08:08;;;;;;;5.88;3.50;;;;;;;-145.41;100.00;58600.66;5010551;28;20039;-84
2023/07/20 03:10:38;;;;;;;7.20;4.50;;;;;;;-145.41;100.00;58600.66;5010880;28;20049;-84
2023/07/20 03:13:03;;;;;;;6.13;3.72;;;;;;;-145.41;100.00;58600.66;5018090;28;20026;-83
2023/07/20 03:15:29;;;;;;;7.43;4.22;;;;;;;-145.41;100.00;58600.66;5007766;28;20097;-83
2023/07/20 03:17:54;;;;;;;5.57;3.45;;;;;;;-145.41;100.00;58600.66;5010739;28;20038;-82
2023/07/20 03:20:19;;;;;;;5.82;3.05;;;;;;;-145.41;100.00;58600.66;5016186;28;20041;-84
2023/07/20 03:22:45;;;;;;;7.32;5.55;;;;;;;-145.41;100.00;58600.66;5027686;28;20040;-82
2023/07/20 03:25:10;;;;;;;7.00;4.25;;;;;;;-145.41;100.00;58600.66;5027934;28;20069;-83
2023/07/20 03:27:36;;;;;;;6.00;4.47;;;;;;;-145.41;100.00;58600.66;5011423;28;20110;-85
2023/07/20 03:30:01;;;;;;;6.28;4.53;;;;;;;-145.41;100.00;58600.66;5025194;28;20048;-82
2023/07/20 03:32:28;;;;;;;7.32;4.50;;;;;;;-145.41;100.00;58600.66;5011866;28;20070;-84
2023/07/20 03:34:53;;;;;;;9.13;5.82;;;;;;;-145.41;100.00;58600.66;5011337;28;20042;-82
2023/07/20 03:37:18;;;;;;;7.20;5.43;;;;;;;-145.41;100.00;58600.66;5015434;28;20030;-83
2023/07/20 03:39:44;;;;;;;8.23;5.90;;;;;;;-145.41;100.00;58600.66;5017004;28;20022;-84
2023/07/20 03:42:09;;;;;;;7.13;5.05;;;;;;;-145.41;100.00;58600.66;5012044;28;20033;-83
2023/07/20 03:44:35;;;;;;;11.23;7.00;;;;;;;-145.41;100.00;58600.66;5011852;28;20181;-83
2023/07/20 03:47:00;;;;;;;7.82;5.63;;;;;;;-145.41;100.00;58600.66;5011794;28;20034;-84
2023/07/20 03:49:26;;;;;;;9.45;6.10;;;;;;;-145.41;100.00;58600.66;5018488;28;20042;-82
2023/07/20 03:51:51;;;;;;;6.53;4.43;;;;;;;-145.41;100.00;58600.66;5011781;28;20041;-82
2023/07/20 03:54:16;;;;;;;7.03;5.03;;;;;;;-145.41;100.00;58600.66;5015438;28;20029;-83
2023/07/20 03:56:42;;;;;;;11.32;5.82;;;;;;;-145.41;100.00;58600.66;5012870;28;20038;-83
2023/07/20 03:59:07;;;;;;;9.65;6.13;;;;;;;-145.41;100.00;58600.66;5008035;28;20104;-85
2023/07/20 04:01:36;;;;;;;9.77;6.70;;;;;;;-145.41;100.00;58600.66;5015578;28;20038;-83
2023/07/20 04:04:05;;;;;;;9.00;5.20;;;;;;;-145.41;100.00;58600.66;5015708;28;20444;-83
2023/07/20 04:06:31;;;;;;;9.20;5.40;;;;;;;-145.41;100.00;58600.66;5001186;28;20041;-85
2023/07/20 04:08:56;;;;;;;7.30;6.00;;;;;;;-145.41;100.00;58600.66;5014987;28;20034;-83
2023/07/20 04:11:21;;;;;;;11.32;8.30;;;;;;;-145.41;100.00;58600.66;5022504;28;20061;-84
2023/07/20 04:13:47;;;;;;;12.05;6.80;;;;;;;-145.41;100.00;58600.66;5018269;28;20038;-85
2023/07/20 04:16:12;;;;;;;7.45;4.90;;;;;;;-145.41;100.00;58600.66;5009680;28;20049;-83
2023/07/20 04:18:37;;;;;;;9.30;6.55;;;;;;;-145.41;100.00;58600.66;5011910;28;20085;-85
2023/07/20 04:21:03;;;;;;;10.98;7.75;;;;;;;-145.41;100.00;58600.66;5015354;28;20059;-83
2023/07/20 04:23:28;;;;;;;8.65;6.20;;;;;;;-145.41;100.00;58600.66;5011608;28;20548;-82
2023/07/20 04:25:54;;;;;;;8.55;6.35;;;;;;;-145.41;100.00;58600.66;5022020;28;20045;-82
2023/07/20 04:28:19;;;;;;;6.30;5.65;;;;;;;-145.41;100.00;58600.66;5016305;28;20041;-82
2023/07/20 04:30:49;;;;;;;6.18;4.15;;;;;;;-145.41;100.00;58600.66;5020535;28;20038;-82
2023/07/20 04:33:15;;;;;;;5.50;4.70;;;;;;;-145.41;100.00;58600.66;5027307;28;20022;-83
2023/07/20 04:35:46;;;;;;;6.95;4.85;;;;;;;-145.41;100.00;58600.66;4995870;28;20026;-82
2023/07/20 04:38:17;;;;;;;14.05;6.97;;;;;;;-145.41;100.00;58600.66;5012218;28;20072;-83
2023/07/20 04:40:47;;;;;;;7.32;5.05;;;;;;;-145.41;100.00;58600.66;5015886;28;20133;-82
2023/07/20 04:43:13;;;;;;;6.85;4.45;;;;;;;-145.41;100.00;58600.66;4999030;28;20076;-82
2023/07/20 04:45:39;;;;;;;8.85;5.22;;;;;;;-145.41;100.00;58600.66;5011256;28;20065;-83
2023/07/20 04:48:11;;;;;;;7.15;5.10;;;;;;;-145.41;100.00;58600.66;5009578;28;20046;-84
2023/07/20 04:50:37;;;;;;;7.20;4.97;;;;;;;-145.41;100.00;58600.66;5015544;22;20069;-73
2023/07/20 04:53:02;;;;;;;8.02;6.15;;;;;;;-145.41;100.00;58600.66;4992328;28;20034;-74
2023/07/20 04:55:28;;;;;;;6.38;4.20;;;;;;;-145.41;100.00;58600.66;4991684;28;20501;-75
2023/07/20 04:57:54;;;;;;;7.03;5.15;;;;;;;-145.41;100.00;58600.66;5006734;28;20097;-75
2023/07/20 05:00:21;;;;;;;9.30;6.13;;;;;;;-145.41;100.00;58600.66;5004430;28;20080;-75
2023/07/20 05:02:48;;;;;;;6.05;5.15;;;;;;;-145.41;100.00;58600.66;4977649;28;20035;-75
2023/07/20 05:05:15;;;;;;;8.70;4.88;;;;;;;-145.41;100.00;58600.66;4973696;28;20058;-75
2023/07/20 05:07:40;;;;;;;10.05;5.75;;;;;;;-145.41;100.00;58600.66;4983500;28;20502;-74
2023/07/20 05:10:06;;;;;;;7.35;4.50;;;;;;;-145.41;100.00;58600.66;4983989;28;20122;-75
2023/07/20 05:12:32;;;;;;;8.48;6.47;;;;;;;-145.41;100.00;58600.66;4983207;28;20039;-74
2023/07/20 05:14:57;;;;;;;8.45;6.15;;;;;;;-145.41;100.00;58600.66;4978251;28;20041;-74
2023/07/20 05:17:23;;;;;;;6.85;4.63;;;;;;;-145.41;100.00;58600.66;4974846;28;20031;-75
2023/07/20 05:19:48;;;;;;;8.68;5.82;;;;;;;-145.41;100.00;58600.66;4990365;28;20027;-75
2023/07/20 05:22:14;;;;;;;8.15;5.32;;;;;;;-145.41;100.00;58600.66;4979578;28;20416;-75
2023/07/20 05:24:39;;;;;;;8.60;5.80;;;;;;;-145.41;100.00;58600.66;4985301;28;20212;-75
2023/07/20 05:27:05;;;;;;;8.95;4.60;;;;;;;-145.41;100.00;58600.66;4975249;28;20537;-75
2023/07/20 05:29:30;;;;;;;8.15;4.82;;;;;;;-145.41;100.00;58600.66;4973620;28;20093;-75
2023/07/20 05:31:56;;;;;;;10.68;5.78;;;;;;;-145.41;100.00;58600.66;4978368;28;20038;-75
2023/07/20 05:34:21;;;;;;;10.07;5.43;;;;;;;-145.41;100.00;58600.66;4976186;28;20119;-75
2023/07/20 05:36:46;;;;;;;7.85;5.28;;;;;;;-145.41;100.00;58600.66;4980109;28;20121;-74
2023/07/20 05:39:12;;;;;;;8.20;5.03;;;;;;;-145.41;100.00;58600.66;4977583;28;20034;-75
2023/07/20 05:41:37;;;;;;;5.93;5.32;;;;;;;-145.41;100.00;58600.66;4971696;28;20034;-75
2023/07/20 05:44:02;;;;;;;9.90;6.55;;;;;;;-145.41;100.00;58600.66;4980787;28;20044;-74
2023/07/20 05:46:28;;;;;;;8.98;6.78;;;;;;;-145.41;100.00;58600.66;4970797;28;20125;-75
2023/07/20 05:48:53;;;;;;;7.80;5.68;;;;;;;-145.41;100.00;58600.66;4971905;28;20034;-75
2023/07/20 05:51:18;;;;;;;6.95;4.95;;;;;;;-145.41;100.00;58600.66;4978103;28;20041;-75
2023/07/20 05:53:44;;;;;;;9.60;6.15;;;;;;;-145.41;100.00;58600.66;4977544;28;20022;-75
2023/07/20 05:56:10;;;;;;;12.77;5.72;;;;;;;-145.41;100.00;58600.66;4977453;28;20117;-75
2023/07/20 05:58:36;;;;;;;8.30;5.80;;;;;;;-145.41;100.00;58600.66;4984748;28;20501;-75
2023/07/20 06:01:05;;;;;;;8.45;4.72;;;;;;;-145.41;100.00;58600.66;4983491;28;20038;-75
2023/07/20 06:03:31;;;;;;;7.07;5.10;;;;;;;-145.41;100.00;58600.66;4970928;28;20034;-75
2023/07/20 06:06:02;;;;;;;8.32;5.55;;;;;;;-145.41;100.00;58600.66;4979161;28;20691;-75
2023/07/20 06:08:28;;;;;;;8.73;6.43;;;;;;;-145.41;100.00;58600.66;4979667;28;20043;-74
2023/07/20 06:10:54;;;;;;;6.65;4.45;;;;;;;-145.41;100.00;58600.66;4961703;28;20081;-74
2023/07/20 06:13:19;;;;;;;7.75;5.32;;;;;;;-145.41;100.00;58600.66;4974973;28;20052;-75
2023/07/20 06:15:44;;;;;;;8.52;5.53;;;;;;;-145.41;100.00;58600.66;4975873;28;20066;-75
2023/07/20 06:18:10;;;;;;;7.53;4.32;;;;;;;-145.41;100.00;58600.66;4985421;28;20039;-75
2023/07/20 06:20:35;;;;;;;6.95;5.18;;;;;;;-145.41;100.00;58600.66;4972177;28;20034;-75
2023/07/20 06:23:00;;;;;;;6.28;3.97;;;;;;;-145.41;100.00;58600.66;4975838;28;20038;-75
2023/07/20 06:25:26;;;;;;;8.32;4.70;;;;;;;-145.41;100.00;58600.66;4986896;28;20084;-75
2023/07/20 06:27:51;;;;;;;7.32;4.13;;;;;;;-145.41;100.00;58600.66;4984704;28;20042;-74
2023/07/20 06:30:17;;;;;;;7.43;4.07;;;;;;;-145.41;100.00;58600.66;4974416;28;20046;-75
2023/07/20 06:32:43;;;;;;;6.70;3.83;;;;;;;-145.41;100.00;58600.66;4979568;28;20507;-75
2023/07/20 06:35:08;;;;;;;7.93;4.53;;;;;;;-145.41;100.00;58600.66;4977114;28;20097;-75
2023/07/20 06:37:34;;;;;;;6.55;4.65;;;;;;;-145.41;100.00;58600.66;4981898;28;20034;-75
2023/07/20 06:39:59;;;;;;;7.05;3.97;;;;;;;-145.41;100.00;58600.66;4979505;28;20648;-75
2023/07/20 06:42:25;;;;;;;7.80;3.88;;;;;;;-145.41;100.00;58600.66;4979660;28;20042;-75
2023/07/20 06:44:50;;;;;;;7.55;4.50;;;;;;;-145.41;100.00;58600.66;4982297;28;20038;-75
2023/07/20 06:47:15;;;;;;;6.78;4.40;;;;;;;-145.41;100.00;58600.66;4983010;28;20089;-74
2023/07/20 06:49:41;;;;;;;5.63;3.58;;;;;;;-145.41;100.00;58600.66;4980033;28;20042;-75
2023/07/20 06:52:06;;;;;;;5.72;4.32;;;;;;;-145.41;100.00;58600.66;4982230;28;20034;-75
2023/07/20 06:54:32;;;;;;;8.52;4.07;;;;;;;-145.41;100.00;58600.66;4979412;28;20165;-75
2023/07/20 06:56:57;;;;;;;6.43;2.70;;;;;;;-145.41;100.00;58600.66;4981527;28;20511;-75
2023/07/20 06:59:24;;;;;;;6.00;3.15;;;;;;;-145.41;100.00;58600.66;4984311;28;20134;-75
2023/07/20 07:01:49;;;;;;;5.00;3.45;;;;;;;-145.41;100.00;58600.66;4979583;28;20045;-75
2023/07/20 07:04:14;;;;;;;9.05;2.95;;;;;;;-145.41;100.00;58600.66;4982624;28;20034;-75
2023/07/20 07:06:40;;;;;;;10.60;2.97;;;;;;;-145.41;100.00;58600.66;4989231;28;20068;-74
2023/07/20 07:09:05;;;;;;;5.15;2.55;;;;;;;-145.41;100.00;58600.66;4976771;28;20393;-75
2023/07/20 07:11:31;;;;;;;7.20;2.45;;;;;;;-145.41;100.00;58600.66;4978148;28;20093;-74
2023/07/20 07:13:56;;;;;;;5.70;2.85;;;;;;;-145.41;100.00;58600.66;4981107;28;20108;-74
2023/07/20 07:16:21;;;;;;;5.15;3.58;;;;;;;-145.41;100.00;58600.66;4981073;28;20038;-75
2023/07/20 07:18:47;;;;;;;6.53;2.72;;;;;;;-145.41;100.00;58600.66;4975743;28;20113;-75
2023/07/20 07:21:12;;;;;;;6.00;3.50;;;;;;;-145.41;100.00;58600.66;4977666;28;20481;-74
2023/07/20 07:23:39;;;;;;;4.70;2.65;;;;;;;-145.41;100.00;58600.66;4981300;28;20077;-75
2023/07/20 07:26:04;;;;;;;5.18;3.13;;;;;;;-145.41;100.00;58600.66;4979199;28;20031;-75
2023/07/20 07:28:29;;;;;;;6.63;2.47;;;;;;;-145.41;100.00;58600.66;4978590;28;20045;-75
2023/07/20 07:30:56;;;;;;;4.05;2.05;;;;;;;-145.41;100.00;58600.66;4977616;28;20045;-74
2023/07/20 07:33:22;;;;;;;4.10;2.30;;;;;;;-145.41;100.00;58600.66;4975853;28;20513;-75
2023/07/20 07:35:47;;;;;;;3.30;2.17;;;;;;;-145.41;100.00;58600.66;4983320;28;20034;-75
2023/07/20 07:38:12;;;;;;;3.80;2.08;;;;;;;-145.41;100.00;58600.66;4984944;28;20092;-75
2023/07/20 07:40:38;;;;;;;4.60;2.25;;;;;;;-145.41;100.00;58600.66;4979447;28;20034;-75
2023/07/20 07:43:03;;;;;;;4.28;1.90;;;;;;;-145.41;100.00;58600.66;4981462;28;20084;-75
2023/07/20 07:45:28;;;;;;;3.58;1.83;;;;;;;-145.41;100.00;58600.66;4978227;28;20039;-75
2023/07/20 07:47:54;;;;;;;2.88;1.50;;;;;;;-145.41;100.00;58600.66;4982637;28;20062;-75
2023/07/20 07:50:19;;;;;;;1.63;1.02;;;;;;;-145.41;100.00;58600.66;4981719;28;20402;-75
2023/07/20 07:52:44;;;;;;;3.05;1.30;;;;;;;-145.41;100.00;58600.66;4975816;28;20026;-75
2023/07/20 07:55:10;;;;;;;2.78;1.17;;;;;;;-145.41;100.00;58600.66;4980577;28;20409;-75
2023/07/20 07:57:35;;;;;;;2.80;0.95;;;;;;;-145.41;100.00;58600.66;4977220;28;20175;-75
2023/07/20 08:00:00;;;;;;;2.58;1.02;;;;;;;-145.41;100.00;58600.66;4974587;28;20035;-75
2023/07/20 08:02:26;;;;;;;3.25;0.88;;;;;;;-145.41;100.00;58600.66;4979718;28;20106;-75
2023/07/20 08:04:52;;;;;;;3.47;1.20;;;;;;;-145.41;100.00;58600.66;4980109;28;20046;-75
2023/07/20 08:07:17;;;;;;;4.32;1.30;;;;;;;-145.41;100.00;58600.66;4979699;28;20037;-74
2023/07/20 08:09:43;;;;;;;3.25;1.50;;;;;;;-145.41;100.00;58600.66;4977925;28;20038;-75
2023/07/20 08:12:08;;;;;;;2.28;1.23;;;;;;;-145.41;100.00;58600.66;4986007;28;20137;-75
2023/07/20 08:14:34;;;;;;;4.95;1.95;;;;;;;-145.41;100.00;58600.66;4980678;28;20034;-75
2023/07/20 08:16:59;;;;;;;2.92;1.27;;;;;;;-145.41;100.00;58600.66;4984004;28;20410;-75
2023/07/20 08:19:24;;;;;;;4.32;1.70;;;;;;;-145.41;100.00;58600.66;4981217;28;20110;-75
2023/07/20 08:21:50;;;;;;;6.00;1.98;;;;;;;-145.41;100.00;58600.66;4982975;28;20513;-75
2023/07/20 08:24:15;;;;;;;3.72;1.83;;;;;;;-145.41;100.00;58600.66;4984218;28;20038;-75
2023/07/20 08:26:40;;;;;;;2.90;1.60;;;;;;;-145.41;100.00;58600.66;4981174;28;20034;-75
2023/07/20 08:29:06;;;;;;;3.05;1.58;;;;;;;-145.41;100.00;58600.66;4977200;28;20030;-75
2023/07/20 08:31:31;;;;;;;3.13;1.80;;;;;;;-145.41;100.00;58600.66;4987683;28;20034;-75
2023/07/20 08:33:56;;;;;;;3.28;1.60;;;;;;;-145.41;100.00;58600.66;4975260;28;20030;-75
2023/07/20 08:36:22;;;;;;;3.60;1.80;;;;;;;-145.41;100.00;58600.66;4979865;28;20041;-75
2023/07/20 08:38:48;;;;;;;3.80;1.77;;;;;;;-145.41;100.00;58600.66;4983337;28;20512;-74
2023/07/20 08:41:14;;;;;;;6.47;1.98;;;;;;;-145.41;100.00;58600.66;4975995;28;20074;-74
2023/07/20 08:43:42;;;;;;;3.13;1.90;;;;;;;-145.41;100.00;58600.66;4981731;28;20026;-74
2023/07/20 08:46:08;;;;;;;5.63;1.85;;;;;;;-145.41;100.00;58600.66;4973968;28;20035;-75
2023/07/20 08:48:33;;;;;;;5.60;2.03;;;;;;;-145.41;100.00;58600.66;4979714;28;20057;-75
2023/07/20 08:51:01;;;;;;;3.05;1.48;;;;;;;-145.41;100.00;58600.66;4981801;28;20031;-75
2023/07/20 08:53:29;;;;;;;2.67;1.77;;;;;;;-145.41;100.00;58600.66;4977041;28;20043;-75
2023/07/20 08:55:55;;;;;;;3.03;1.80;;;;;;;-145.41;100.00;58600.66;4980860;28;20035;-73
2023/07/20 08:58:20;;;;;;;4.03;2.10;;;;;;;-145.41;100.00;58600.66;4979671;28;20524;-74
2023/07/20 09:00:46;;;;;;;2.72;1.65;;;;;;;-145.41;100.00;58600.66;4975564;28;20042;-75
2023/07/20 09:03:12;;;;;;;3.28;1.52;;;;;;;-145.41;100.00;58600.66;4978741;28;20045;-75
2023/07/20 09:05:38;;;;;;;3.30;1.90;;;;;;;-145.41;100.00;58600.66;4976224;28;20045;-75
2023/07/20 09:08:04;;;;;;;3.47;2.13;;;;;;;-145.41;100.00;58600.66;4985507;28;20031;-75
2023/07/20 09:10:29;;;;;;;4.30;2.38;;;;;;;-145.41;100.00;58600.66;4982391;28;20580;-75
2023/07/20 09:12:55;;;;;;;3.75;2.50;;;;;;;-145.41;100.00;58600.66;4995337;28;20066;-75
2023/07/20 09:15:22;;;;;;;2.88;1.40;;;;;;;-145.41;100.00;58600.66;4980061;28;20042;-75
2023/07/20 09:17:49;;;;;;;2.85;1.83;;;;;;;-145.41;100.00;58600.66;4977714;28;20027;-75
2023/07/20 09:20:16;;;;;;;2.90;1.45;;;;;;;-145.41;100.00;58600.66;4982374;28;20049;-75
2023/07/20 09:22:41;;;;;;;3.15;1.40;;;;;;;-145.41;100.00;58600.66;4977060;28;20042;-75
2023/07/20 09:25:11;;;;;;;3.63;1.98;;;;;;;-145.41;100.00;58600.66;4978664;28;20053;-75
2023/07/20 09:27:42;;;;;;;3.13;1.30;;;;;;;-145.41;100.00;58600.66;4980452;28;20607;-74
2023/07/20 09:30:09;;;;;;;2.38;1.40;;;;;;;-145.41;100.00;58600.66;4982956;28;20080;-75
2023/07/20 09:32:41;;;;;;;2.17;1.40;;;;;;;-145.41;100.00;58600.66;4973150;28;20062;-75
2023/07/20 09:35:12;;;;;;;3.08;1.30;;;;;;;-145.41;100.00;58600.66;4980415;28;20054;-76
2023/07/20 09:37:37;;;;;;;1.83;1.17;;;;;;;-145.41;100.00;58600.66;4973495;28;20375;-75
2023/07/20 09:40:06;;;;;;;2.85;1.08;;;;;;;-145.41;100.00;58600.66;4979219;28;20093;-75
2023/07/20 09:42:32;;;;;;;3.22;0.82;;;;;;;-145.41;100.00;58600.66;4975611;28;20081;-75
2023/07/20 09:44:57;;;;;;;3.33;1.25;;;;;;;-145.41;100.00;58600.66;4977618;28;20034;-75
2023/07/20 09:47:23;;;;;;;1.52;1.00;;;;;;;-145.41;100.00;58600.66;4979430;28;20035;-74
2023/07/20 09:49:48;;;;;;;3.17;1.00;;;;;;;-145.41;100.00;58600.66;4973960;28;20077;-75
2023/07/20 09:52:15;;;;;;;1.45;0.90;;;;;;;-145.41;100.00;58600.66;4977420;28;20046;-75
2023/07/20 09:54:40;;;;;;;3.20;1.15;;;;;;;-145.41;100.00;58600.66;4978998;28;20061;-75
2023/07/20 09:57:08;;;;;;;3.47;1.42;;;;;;;-145.41;100.00;58600.66;4978038;28;20066;-75
2023/07/20 09:59:34;;;;;;;4.25;1.70;;;;;;;-145.41;100.00;58600.66;4973349;28;20087;-75
2023/07/20 10:02:01;;;;;;;3.40;1.60;;;;;;;-145.41;100.00;58600.66;4976554;28;20074;-75
2023/07/20 10:04:29;;;;;;;2.88;1.30;;;;;;;-145.41;100.00;58600.66;4978897;28;20042;-75
2023/07/20 10:06:56;;;;;;;2.03;1.20;;;;;;;-145.41;100.00;58600.66;4974792;28;20031;-75
2023/07/20 10:09:24;;;;;;;2.80;1.40;;;;;;;-145.41;100.00;58600.66;4977285;28;20150;-75
2023/07/20 10:11:50;;;;;;;2.78;1.30;;;;;;;-145.41;100.00;58600.66;4980873;28;20038;-75
2023/07/20 10:14:19;;;;;;;3.78;1.80;;;;;;;-145.41;100.00;58600.66;4974113;28;20026;-75
2023/07/20 10:16:55;;;;;;;4.72;1.30;;;;;;;-145.41;100.00;58600.66;4990118;28;20086;-75
2023/07/20 10:19:31;;;;;;;3.60;1.30;;;;;;;-145.41;100.00;58600.66;4978923;28;20122;-75
2023/07/20 10:22:02;;;;;;;2.75;1.30;;;;;;;-145.41;100.00;58600.66;4976858;28;20034;-75
2023/07/20 10:24:28;;;;;;;2.13;1.20;;;;;;;-145.41;100.00;58600.66;4979688;28;20066;-75
2023/07/20 10:26:55;;;;;;;3.60;1.25;;;;;;;-145.41;100.00;58600.66;4983909;28;20074;-75
2023/07/20 10:29:22;;;;;;;4.93;1.08;;;;;;;-145.41;100.00;58600.66;4980033;28;20077;-76
2023/07/20 10:31:48;;;;;;;2.28;1.13;;;;;;;-145.41;100.00;58600.66;4986504;28;20035;-77
2023/07/20 10:34:14;;;;;;;2.13;1.10;;;;;;;-145.41;100.00;58600.66;4986316;28;20117;-75
2023/07/20 10:36:48;;;;;;;2.13;1.15;;;;;;;-145.41;100.00;58600.66;4981243;28;20177;-76
2023/07/20 10:39:23;;;;;;;2.38;0.95;;;;;;;-145.41;100.00;58600.66;4981244;28;20493;-75
2023/07/20 10:41:49;;;;;;;1.73;0.80;;;;;;;-145.41;100.00;58600.66;4982307;28;20038;-74
2023/07/20 10:44:20;;;;;;;9.02;2.28;;;;;;;-145.41;100.00;58600.66;4976433;28;20038;-74
2023/07/20 10:46:46;;;;;;;3.38;1.20;;;;;;;-145.41;100.00;58600.66;4981561;28;20113;-75
2023/07/20 10:49:14;;;;;;;2.47;1.15;;;;;;;-145.41;100.00;58600.66;4981204;28;20034;-75
2023/07/20 10:51:44;;;;;;;1.90;0.70;;;;;;;-145.41;100.00;58600.66;4978217;28;20157;-76
2023/07/20 10:54:16;;;;;;;2.90;0.85;;;;;;;-145.41;100.00;58600.66;4984803;28;20442;-76
2023/07/20 10:56:42;;;;;;;2.17;1.33;;;;;;;-145.41;100.00;58600.66;4981805;28;20033;-75
2023/07/20 10:59:21;;;;;;;1.88;1.00;;;;;;;-145.41;100.00;58600.66;4978767;28;20043;-75
2023/07/20 11:04:18;;;;;;;1.40;0.80;;;;;;;-145.41;100.00;58600.66;4991174;28;20045;-81
2023/07/20 11:06:45;;;;;;;2.55;0.77;;;;;;;-145.41;100.00;58600.66;5007172;28;20094;-81
2023/07/20 11:09:14;;;;;;;1.85;0.70;;;;;;;-145.41;100.00;58600.66;4989732;28;20051;-80